sensor_id;sensor_type;location;lat;lon;timestamp;pressure;altitude;pressure_sealevel;temperature;humidity
21361;BME280;10839;43.206;23.550;2023-07-09T00:02:15;97472.63;;;24.00;44.91
21361;BME280;10839;43.206;23.550;2023-07-09T00:04:42;97469.88;;;24.05;44.47
21361;BME280;10839;43.206;23.550;2023-07-09T00:09:47;97472.56;;;23.90;44.50
21361;BME280;10839;43.206;23.550;2023-07-09T00:12:15;97470.38;;;23.92;44.90
21361;BME280;10839;43.206;23.550;2023-07-09T00:14:42;97475.31;;;23.85;44.92
21361;BME280;10839;43.206;23.550;2023-07-09T00:17:18;97469.00;;;23.94;44.71
21361;BME280;10839;43.206;23.550;2023-07-09T00:19:46;97463.75;;;23.88;44.79
21361;BME280;10839;43.206;23.550;2023-07-09T00:22:17;97469.81;;;23.85;44.96
21361;BME280;10839;43.206;23.550;2023-07-09T00:24:48;97454.38;;;23.79;45.18
21361;BME280;10839;43.206;23.550;2023-07-09T00:27:21;97468.13;;;23.84;45.43
21361;BME280;10839;43.206;23.550;2023-07-09T00:29:49;97471.34;;;23.56;45.46
21361;BME280;10839;43.206;23.550;2023-07-09T00:32:19;97469.50;;;23.71;45.61
21361;BME280;10839;43.206;23.550;2023-07-09T00:34:51;97479.97;;;23.84;44.84
21361;BME280;10839;43.206;23.550;2023-07-09T00:37:20;97479.69;;;23.81;44.96
21361;BME280;10839;43.206;23.550;2023-07-09T00:39:47;97485.19;;;23.86;44.83
21361;BME280;10839;43.206;23.550;2023-07-09T00:42:17;97477.19;;;23.69;45.13
21361;BME280;10839;43.206;23.550;2023-07-09T00:44:51;97480.19;;;23.68;45.39
21361;BME280;10839;43.206;23.550;2023-07-09T00:53:10;97475.22;;;23.60;46.91
21361;BME280;10839;43.206;23.550;2023-07-09T00:55:40;97462.78;;;23.37;46.91
21361;BME280;10839;43.206;23.550;2023-07-09T00:58:10;97476.84;;;23.56;45.74
21361;BME280;10839;43.206;23.550;2023-07-09T01:00:43;97477.34;;;23.43;46.11
21361;BME280;10839;43.206;23.550;2023-07-09T01:03:22;97475.78;;;23.62;45.15
21361;BME280;10839;43.206;23.550;2023-07-09T01:05:49;97464.75;;;23.52;45.36
21361;BME280;10839;43.206;23.550;2023-07-09T01:08:19;97469.09;;;23.43;45.99
21361;BME280;10839;43.206;23.550;2023-07-09T01:10:46;97463.66;;;23.58;45.13
21361;BME280;10839;43.206;23.550;2023-07-09T01:13:13;97459.78;;;23.39;45.55
21361;BME280;10839;43.206;23.550;2023-07-09T01:15:40;97462.56;;;23.54;45.35
21361;BME280;10839;43.206;23.550;2023-07-09T01:18:06;97457.56;;;23.41;45.51
21361;BME280;10839;43.206;23.550;2023-07-09T01:20:34;97465.84;;;23.51;45.61
21361;BME280;10839;43.206;23.550;2023-07-09T01:23:00;97455.72;;;23.66;44.80
21361;BME280;10839;43.206;23.550;2023-07-09T01:25:27;97469.72;;;23.60;45.38
21361;BME280;10839;43.206;23.550;2023-07-09T01:27:57;97462.56;;;23.49;45.73
21361;BME280;10839;43.206;23.550;2023-07-09T01:30:30;97461.09;;;23.31;46.93
21361;BME280;10839;43.206;23.550;2023-07-09T01:32:58;97467.41;;;23.27;46.84
21361;BME280;10839;43.206;23.550;2023-07-09T01:35:25;97475.38;;;23.28;46.35
21361;BME280;10839;43.206;23.550;2023-07-09T01:37:52;97470.09;;;23.22;47.26
21361;BME280;10839;43.206;23.550;2023-07-09T01:40:21;97473.22;;;22.94;48.65
21361;BME280;10839;43.206;23.550;2023-07-09T01:42:48;97473.38;;;23.19;47.67
21361;BME280;10839;43.206;23.550;2023-07-09T01:45:14;97481.84;;;23.12;47.99
21361;BME280;10839;43.206;23.550;2023-07-09T01:47:41;97476.47;;;22.86;49.23
21361;BME280;10839;43.206;23.550;2023-07-09T01:50:10;97475.06;;;22.83;49.55
21361;BME280;10839;43.206;23.550;2023-07-09T01:52:38;97486.94;;;22.89;49.28
21361;BME280;10839;43.206;23.550;2023-07-09T01:55:12;97479.75;;;22.88;49.09
21361;BME280;10839;43.206;23.550;2023-07-09T01:57:42;97482.59;;;23.03;47.61
21361;BME280;10839;43.206;23.550;2023-07-09T02:00:14;97482.03;;;22.96;48.35
21361;BME280;10839;43.206;23.550;2023-07-09T02:02:44;97487.16;;;22.82;48.56
21361;BME280;10839;43.206;23.550;2023-07-09T02:05:14;97488.81;;;22.83;49.08
21361;BME280;10839;43.206;23.550;2023-07-09T02:07:40;97486.84;;;22.78;49.29
21361;BME280;10839;43.206;23.550;2023-07-09T02:10:07;97482.75;;;22.49;50.62
21361;BME280;10839;43.206;23.550;2023-07-09T02:12:33;97486.28;;;22.45;51.08
21361;BME280;10839;43.206;23.550;2023-07-09T02:14:59;97488.09;;;22.34;52.10
21361;BME280;10839;43.206;23.550;2023-07-09T02:17:25;97490.16;;;22.17;52.60
21361;BME280;10839;43.206;23.550;2023-07-09T02:19:51;97493.28;;;21.56;54.84
21361;BME280;10839;43.206;23.550;2023-07-09T02:22:17;97502.53;;;21.28;55.87
21361;BME280;10839;43.206;23.550;2023-07-09T02:24:45;97500.19;;;21.37;56.01
21361;BME280;10839;43.206;23.550;2023-07-09T02:27:14;97501.09;;;21.21;56.59
21361;BME280;10839;43.206;23.550;2023-07-09T02:29:41;97507.59;;;20.98;57.42
21361;BME280;10839;43.206;23.550;2023-07-09T02:32:07;97512.47;;;20.80;58.34
21361;BME280;10839;43.206;23.550;2023-07-09T02:34:33;97510.75;;;20.57;59.44
21361;BME280;10839;43.206;23.550;2023-07-09T02:37:01;97509.66;;;20.75;59.22
21361;BME280;10839;43.206;23.550;2023-07-09T02:39:26;97515.19;;;20.96;58.52
21361;BME280;10839;43.206;23.550;2023-07-09T02:41:52;97519.72;;;20.69;59.21
21361;BME280;10839;43.206;23.550;2023-07-09T02:44:20;97523.84;;;20.72;59.17
21361;BME280;10839;43.206;23.550;2023-07-09T02:46:46;97530.06;;;20.51;60.34
21361;BME280;10839;43.206;23.550;2023-07-09T02:49:13;97525.38;;;20.46;60.60
21361;BME280;10839;43.206;23.550;2023-07-09T02:51:40;97521.44;;;20.42;60.78
21361;BME280;10839;43.206;23.550;2023-07-09T02:54:06;97530.06;;;20.84;59.67
21361;BME280;10839;43.206;23.550;2023-07-09T02:56:32;97524.34;;;20.69;60.08
21361;BME280;10839;43.206;23.550;2023-07-09T02:58:58;97527.84;;;20.97;59.61
21361;BME280;10839;43.206;23.550;2023-07-09T03:01:24;97540.91;;;21.12;58.58
21361;BME280;10839;43.206;23.550;2023-07-09T03:03:57;97540.56;;;20.92;59.06
21361;BME280;10839;43.206;23.550;2023-07-09T03:06:26;97541.28;;;20.99;58.98
21361;BME280;10839;43.206;23.550;2023-07-09T03:08:52;97535.19;;;20.97;59.52
21361;BME280;10839;43.206;23.550;2023-07-09T03:11:20;97539.13;;;21.01;58.98
21361;BME280;10839;43.206;23.550;2023-07-09T03:13:47;97536.16;;;21.24;58.70
21361;BME280;10839;43.206;23.550;2023-07-09T03:16:14;97544.59;;;21.61;57.44
21361;BME280;10839;43.206;23.550;2023-07-09T03:18:40;97537.97;;;21.78;56.67
21361;BME280;10839;43.206;23.550;2023-07-09T03:21:06;97537.63;;;21.53;57.50
21361;BME280;10839;43.206;23.550;2023-07-09T03:23:32;97551.38;;;21.58;57.79
21361;BME280;10839;43.206;23.550;2023-07-09T03:25:58;97544.56;;;21.17;58.74
21361;BME280;10839;43.206;23.550;2023-07-09T03:28:25;97548.59;;;21.53;57.45
21361;BME280;10839;43.206;23.550;2023-07-09T03:30:54;97561.97;;;21.11;59.00
21361;BME280;10839;43.206;23.550;2023-07-09T03:33:20;97549.22;;;20.84;59.56
21361;BME280;10839;43.206;23.550;2023-07-09T03:35:46;97559.81;;;20.97;60.17
21361;BME280;10839;43.206;23.550;2023-07-09T03:38:13;97549.72;;;20.81;60.67
21361;BME280;10839;43.206;23.550;2023-07-09T03:40:39;97545.56;;;20.78;60.53
21361;BME280;10839;43.206;23.550;2023-07-09T03:43:05;97547.19;;;21.29;59.46
21361;BME280;10839;43.206;23.550;2023-07-09T03:45:32;97549.53;;;21.20;59.35
21361;BME280;10839;43.206;23.550;2023-07-09T03:47:58;97548.66;;;21.58;58.66
21361;BME280;10839;43.206;23.550;2023-07-09T03:50:24;97552.16;;;21.75;57.89
21361;BME280;10839;43.206;23.550;2023-07-09T03:52:50;97546.44;;;21.98;56.70
21361;BME280;10839;43.206;23.550;2023-07-09T03:55:16;97546.31;;;23.05;54.18
21361;BME280;10839;43.206;23.550;2023-07-09T03:57:42;97549.91;;;24.04;50.89
21361;BME280;10839;43.206;23.550;2023-07-09T04:00:08;97546.81;;;26.39;45.38
21361;BME280;10839;43.206;23.550;2023-07-09T04:02:42;97550.69;;;28.34;41.59
21361;BME280;10839;43.206;23.550;2023-07-09T04:05:12;97558.53;;;27.85;41.15
21361;BME280;10839;43.206;23.550;2023-07-09T04:07:38;97558.50;;;28.50;40.34
21361;BME280;10839;43.206;23.550;2023-07-09T04:10:05;97557.81;;;27.98;40.36
21361;BME280;10839;43.206;23.550;2023-07-09T04:12:31;97564.81;;;28.14;40.70
21361;BME280;10839;43.206;23.550;2023-07-09T04:14:59;97559.00;;;27.68;41.22
21361;BME280;10839;43.206;23.550;2023-07-09T04:17:24;97561.03;;;26.18;44.21
21361;BME280;10839;43.206;23.550;2023-07-09T04:19:51;97574.81;;;26.18;44.48
21361;BME280;10839;43.206;23.550;2023-07-09T04:22:17;97570.53;;;25.87;44.99
21361;BME280;10839;43.206;23.550;2023-07-09T04:24:43;97580.03;;;25.15;46.65
21361;BME280;10839;43.206;23.550;2023-07-09T04:27:09;97576.16;;;24.66;47.41
21361;BME280;10839;43.206;23.550;2023-07-09T04:29:36;97576.16;;;24.66;47.79
21361;BME280;10839;43.206;23.550;2023-07-09T04:32:05;97582.78;;;25.00;47.28
21361;BME280;10839;43.206;23.550;2023-07-09T04:34:31;97583.22;;;24.17;49.51
21361;BME280;10839;43.206;23.550;2023-07-09T04:36:57;97586.50;;;24.19;49.70
21361;BME280;10839;43.206;23.550;2023-07-09T04:39:23;97584.88;;;24.18;50.47
21361;BME280;10839;43.206;23.550;2023-07-09T04:41:49;97582.53;;;23.90;51.52
21361;BME280;10839;43.206;23.550;2023-07-09T04:44:15;97589.88;;;24.41;50.68
21361;BME280;10839;43.206;23.550;2023-07-09T04:46:41;97588.53;;;24.54;50.48
21361;BME280;10839;43.206;23.550;2023-07-09T04:49:08;97591.56;;;25.63;48.09
21361;BME280;10839;43.206;23.550;2023-07-09T04:51:36;97590.03;;;27.60;43.88
21361;BME280;10839;43.206;23.550;2023-07-09T04:54:02;97588.72;;;28.47;41.97
21361;BME280;10839;43.206;23.550;2023-07-09T04:56:30;97592.38;;;28.42;41.50
21361;BME280;10839;43.206;23.550;2023-07-09T04:58:56;97594.34;;;28.00;42.03
21361;BME280;10839;43.206;23.550;2023-07-09T05:01:23;97589.81;;;27.56;43.06
21361;BME280;10839;43.206;23.550;2023-07-09T05:03:48;97584.56;;;26.93;43.82
21361;BME280;10839;43.206;23.550;2023-07-09T05:06:15;97593.53;;;27.71;43.13
21361;BME280;10839;43.206;23.550;2023-07-09T05:08:41;97590.06;;;28.31;42.19
21361;BME280;10839;43.206;23.550;2023-07-09T05:11:09;97586.50;;;28.25;42.60
21361;BME280;10839;43.206;23.550;2023-07-09T05:13:36;97589.34;;;28.20;42.72
21361;BME280;10839;43.206;23.550;2023-07-09T05:16:02;97594.97;;;30.81;38.60
21361;BME280;10839;43.206;23.550;2023-07-09T05:18:28;97599.09;;;30.56;39.60
21361;BME280;10839;43.206;23.550;2023-07-09T05:20:54;97600.31;;;29.55;41.01
21361;BME280;10839;43.206;23.550;2023-07-09T05:23:23;97599.72;;;29.08;41.07
21361;BME280;10839;43.206;23.550;2023-07-09T05:25:56;97610.59;;;30.90;38.46
21361;BME280;10839;43.206;23.550;2023-07-09T05:28:21;97610.78;;;30.18;39.67
21361;BME280;10839;43.206;23.550;2023-07-09T05:30:47;97607.38;;;30.21;39.51
21361;BME280;10839;43.206;23.550;2023-07-09T05:33:13;97610.38;;;30.87;38.53
21361;BME280;10839;43.206;23.550;2023-07-09T05:35:39;97595.66;;;32.62;35.86
21361;BME280;10839;43.206;23.550;2023-07-09T05:38:04;97600.91;;;32.72;34.83
21361;BME280;10839;43.206;23.550;2023-07-09T05:40:31;97602.09;;;33.39;34.18
21361;BME280;10839;43.206;23.550;2023-07-09T05:42:57;97605.13;;;33.97;33.27
21361;BME280;10839;43.206;23.550;2023-07-09T05:45:23;97607.28;;;35.08;31.52
21361;BME280;10839;43.206;23.550;2023-07-09T05:47:49;97598.03;;;37.14;29.29
21361;BME280;10839;43.206;23.550;2023-07-09T05:50:15;97611.34;;;38.00;28.36
21361;BME280;10839;43.206;23.550;2023-07-09T05:52:41;97612.91;;;38.13;27.38
21361;BME280;10839;43.206;23.550;2023-07-09T05:55:07;97601.63;;;37.82;26.60
21361;BME280;10839;43.206;23.550;2023-07-09T05:57:33;97614.50;;;39.26;25.78
21361;BME280;10839;43.206;23.550;2023-07-09T05:59:58;97617.69;;;39.25;24.77
21361;BME280;10839;43.206;23.550;2023-07-09T06:02:24;97617.47;;;38.80;25.14
21361;BME280;10839;43.206;23.550;2023-07-09T06:04:50;97618.72;;;38.82;25.12
21361;BME280;10839;43.206;23.550;2023-07-09T06:07:16;97611.28;;;39.63;24.58
21361;BME280;10839;43.206;23.550;2023-07-09T06:09:44;97612.41;;;39.04;25.23
21361;BME280;10839;43.206;23.550;2023-07-09T06:12:11;97620.72;;;39.16;25.15
21361;BME280;10839;43.206;23.550;2023-07-09T06:14:37;97616.88;;;39.24;24.66
21361;BME280;10839;43.206;23.550;2023-07-09T06:17:03;97608.13;;;38.29;25.04
21361;BME280;10839;43.206;23.550;2023-07-09T06:19:29;97617.56;;;38.21;25.37
21361;BME280;10839;43.206;23.550;2023-07-09T06:21:56;97607.50;;;38.35;24.88
21361;BME280;10839;43.206;23.550;2023-07-09T06:24:23;97614.59;;;38.29;24.51
21361;BME280;10839;43.206;23.550;2023-07-09T06:26:49;97614.53;;;38.14;24.82
21361;BME280;10839;43.206;23.550;2023-07-09T06:29:15;97614.88;;;37.97;25.42
21361;BME280;10839;43.206;23.550;2023-07-09T06:31:41;97605.91;;;37.64;24.93
21361;BME280;10839;43.206;23.550;2023-07-09T06:34:08;97611.94;;;38.21;24.39
21361;BME280;10839;43.206;23.550;2023-07-09T06:36:35;97610.84;;;38.41;24.60
21361;BME280;10839;43.206;23.550;2023-07-09T06:39:02;97604.84;;;38.27;24.50
21361;BME280;10839;43.206;23.550;2023-07-09T06:41:28;97609.41;;;38.16;24.82
21361;BME280;10839;43.206;23.550;2023-07-09T06:43:54;97603.56;;;38.40;24.26
21361;BME280;10839;43.206;23.550;2023-07-09T06:46:21;97601.19;;;37.80;25.09
21361;BME280;10839;43.206;23.550;2023-07-09T06:48:46;97597.22;;;38.12;24.52
21361;BME280;10839;43.206;23.550;2023-07-09T06:51:13;97607.78;;;37.72;25.25
21361;BME280;10839;43.206;23.550;2023-07-09T06:53:38;97607.63;;;37.53;25.76
21361;BME280;10839;43.206;23.550;2023-07-09T06:56:05;97597.22;;;37.53;25.84
21361;BME280;10839;43.206;23.550;2023-07-09T06:58:32;97593.38;;;37.46;26.07
21361;BME280;10839;43.206;23.550;2023-07-09T07:01:03;97594.50;;;36.53;25.85
21361;BME280;10839;43.206;23.550;2023-07-09T07:03:31;97589.50;;;37.10;25.77
21361;BME280;10839;43.206;23.550;2023-07-09T07:05:58;97595.78;;;36.68;26.89
21361;BME280;10839;43.206;23.550;2023-07-09T07:08:25;97596.16;;;37.18;26.29
21361;BME280;10839;43.206;23.550;2023-07-09T07:11:00;97594.47;;;36.77;26.35
21361;BME280;10839;43.206;23.550;2023-07-09T07:13:36;97578.06;;;37.59;25.87
21361;BME280;10839;43.206;23.550;2023-07-09T07:16:04;97584.38;;;37.00;26.83
21361;BME280;10839;43.206;23.550;2023-07-09T07:18:30;97578.91;;;37.59;25.82
21361;BME280;10839;43.206;23.550;2023-07-09T07:20:56;97579.72;;;37.60;26.39
21361;BME280;10839;43.206;23.550;2023-07-09T07:23:22;97583.63;;;37.28;26.90
21361;BME280;10839;43.206;23.550;2023-07-09T07:25:50;97584.41;;;37.56;26.60
21361;BME280;10839;43.206;23.550;2023-07-09T07:28:17;97579.91;;;37.67;26.86
21361;BME280;10839;43.206;23.550;2023-07-09T07:30:44;97580.28;;;37.38;26.92
21361;BME280;10839;43.206;23.550;2023-07-09T07:33:10;97577.75;;;37.20;26.58
21361;BME280;10839;43.206;23.550;2023-07-09T07:35:37;97584.00;;;37.42;26.50
21361;BME280;10839;43.206;23.550;2023-07-09T07:38:03;97581.03;;;37.22;26.88
21361;BME280;10839;43.206;23.550;2023-07-09T07:40:29;97572.78;;;36.38;27.58
21361;BME280;10839;43.206;23.550;2023-07-09T07:42:55;97571.53;;;36.99;26.40
21361;BME280;10839;43.206;23.550;2023-07-09T07:45:21;97571.91;;;36.62;27.56
21361;BME280;10839;43.206;23.550;2023-07-09T07:47:47;97573.78;;;36.82;27.00
21361;BME280;10839;43.206;23.550;2023-07-09T07:50:13;97568.75;;;36.87;26.76
21361;BME280;10839;43.206;23.550;2023-07-09T07:52:39;97574.69;;;36.98;26.90
21361;BME280;10839;43.206;23.550;2023-07-09T07:55:07;97567.69;;;37.32;27.52
21361;BME280;10839;43.206;23.550;2023-07-09T07:57:33;97570.28;;;36.85;27.29
21361;BME280;10839;43.206;23.550;2023-07-09T07:59:59;97570.19;;;36.81;27.57
21361;BME280;10839;43.206;23.550;2023-07-09T08:02:25;97569.75;;;36.43;27.58
21361;BME280;10839;43.206;23.550;2023-07-09T08:04:51;97571.78;;;36.82;27.53
21361;BME280;10839;43.206;23.550;2023-07-09T08:07:18;97575.91;;;36.61;27.35
21361;BME280;10839;43.206;23.550;2023-07-09T08:09:45;97578.13;;;36.31;27.77
21361;BME280;10839;43.206;23.550;2023-07-09T08:12:13;97572.75;;;36.14;27.75
21361;BME280;10839;43.206;23.550;2023-07-09T08:14:41;97574.88;;;36.53;27.25
21361;BME280;10839;43.206;23.550;2023-07-09T08:17:08;97567.63;;;36.28;28.42
21361;BME280;10839;43.206;23.550;2023-07-09T08:19:45;97567.41;;;36.33;27.51
21361;BME280;10839;43.206;23.550;2023-07-09T08:22:11;97564.38;;;36.38;28.56
21361;BME280;10839;43.206;23.550;2023-07-09T08:24:37;97570.06;;;36.54;28.69
21361;BME280;10839;43.206;23.550;2023-07-09T08:27:06;97561.19;;;36.52;28.61
21361;BME280;10839;43.206;23.550;2023-07-09T08:29:32;97559.44;;;36.59;28.53
21361;BME280;10839;43.206;23.550;2023-07-09T08:31:58;97553.94;;;36.51;28.02
21361;BME280;10839;43.206;23.550;2023-07-09T08:34:24;97563.66;;;36.05;29.11
21361;BME280;10839;43.206;23.550;2023-07-09T08:36:49;97555.44;;;36.12;28.82
21361;BME280;10839;43.206;23.550;2023-07-09T08:39:16;97552.88;;;36.19;28.94
21361;BME280;10839;43.206;23.550;2023-07-09T08:41:54;97560.13;;;36.68;29.16
21361;BME280;10839;43.206;23.550;2023-07-09T08:44:55;97550.38;;;35.37;29.27
21361;BME280;10839;43.206;23.550;2023-07-09T08:47:43;97552.66;;;35.23;30.17
21361;BME280;10839;43.206;23.550;2023-07-09T08:50:19;97559.44;;;35.54;30.74
21361;BME280;10839;43.206;23.550;2023-07-09T08:52:48;97555.44;;;36.24;29.24
21361;BME280;10839;43.206;23.550;2023-07-09T08:55:28;97554.97;;;35.21;29.93
21361;BME280;10839;43.206;23.550;2023-07-09T08:58:05;97560.03;;;35.60;29.99
21361;BME280;10839;43.206;23.550;2023-07-09T09:00:46;97551.81;;;35.43;29.69
21361;BME280;10839;43.206;23.550;2023-07-09T09:03:27;97551.38;;;35.53;30.01
21361;BME280;10839;43.206;23.550;2023-07-09T09:05:55;97551.81;;;35.43;30.04
21361;BME280;10839;43.206;23.550;2023-07-09T09:11:24;97558.59;;;34.80;30.40
21361;BME280;10839;43.206;23.550;2023-07-09T09:13:55;97553.63;;;35.06;30.57
21361;BME280;10839;43.206;23.550;2023-07-09T09:16:25;97541.75;;;35.09;30.70
21361;BME280;10839;43.206;23.550;2023-07-09T09:18:55;97547.97;;;35.15;30.91
21361;BME280;10839;43.206;23.550;2023-07-09T09:21:25;97545.03;;;34.91;30.64
21361;BME280;10839;43.206;23.550;2023-07-09T09:23:56;97541.97;;;34.83;31.24
21361;BME280;10839;43.206;23.550;2023-07-09T09:26:34;97551.16;;;34.63;30.95
21361;BME280;10839;43.206;23.550;2023-07-09T09:29:15;97541.56;;;34.94;31.65
21361;BME280;10839;43.206;23.550;2023-07-09T09:31:45;97543.38;;;34.90;30.94
21361;BME280;10839;43.206;23.550;2023-07-09T09:34:19;97551.09;;;34.51;31.18
21361;BME280;10839;43.206;23.550;2023-07-09T09:36:45;97540.59;;;34.40;31.70
21361;BME280;10839;43.206;23.550;2023-07-09T09:39:11;97544.03;;;34.16;31.67
21361;BME280;10839;43.206;23.550;2023-07-09T09:41:37;97543.88;;;34.13;32.47
21361;BME280;10839;43.206;23.550;2023-07-09T09:44:04;97535.13;;;34.23;31.84
21361;BME280;10839;43.206;23.550;2023-07-09T09:46:32;97546.44;;;33.97;32.35
21361;BME280;10839;43.206;23.550;2023-07-09T09:49:02;97546.91;;;33.99;32.34
21361;BME280;10839;43.206;23.550;2023-07-09T09:51:33;97540.13;;;34.38;32.45
21361;BME280;10839;43.206;23.550;2023-07-09T09:54:01;97540.88;;;34.55;31.52
21361;BME280;10839;43.206;23.550;2023-07-09T09:56:30;97545.16;;;34.73;31.57
21361;BME280;10839;43.206;23.550;2023-07-09T09:58:57;97538.72;;;34.52;31.29
21361;BME280;10839;43.206;23.550;2023-07-09T10:01:29;97544.66;;;34.51;31.50
21361;BME280;10839;43.206;23.550;2023-07-09T10:03:57;97542.84;;;34.55;31.46
21361;BME280;10839;43.206;23.550;2023-07-09T10:06:41;97541.72;;;34.47;31.64
21361;BME280;10839;43.206;23.550;2023-07-09T10:15:01;97541.44;;;34.40;31.27
21361;BME280;10839;43.206;23.550;2023-07-09T10:17:38;97543.84;;;33.92;30.84
21361;BME280;10839;43.206;23.550;2023-07-09T10:25:34;97531.13;;;34.03;32.11
21361;BME280;10839;43.206;23.550;2023-07-09T10:28:07;97534.09;;;34.27;31.88
21361;BME280;10839;43.206;23.550;2023-07-09T10:33:30;97526.13;;;33.71;32.44
21361;BME280;10839;43.206;23.550;2023-07-09T10:36:20;97526.72;;;33.39;32.06
21361;BME280;10839;43.206;23.550;2023-07-09T10:39:02;97525.06;;;33.38;32.59
21361;BME280;10839;43.206;23.550;2023-07-09T10:41:31;97523.03;;;33.64;32.70
21361;BME280;10839;43.206;23.550;2023-07-09T10:46:39;97520.78;;;33.49;32.25
21361;BME280;10839;43.206;23.550;2023-07-09T10:49:12;97523.31;;;33.25;32.50
21361;BME280;10839;43.206;23.550;2023-07-09T10:51:52;97513.00;;;33.00;33.33
21361;BME280;10839;43.206;23.550;2023-07-09T10:57:11;97511.69;;;33.06;33.46
21361;BME280;10839;43.206;23.550;2023-07-09T10:59:40;97523.50;;;33.03;33.14
21361;BME280;10839;43.206;23.550;2023-07-09T11:05:02;97517.09;;;33.11;33.34
21361;BME280;10839;43.206;23.550;2023-07-09T11:07:38;97514.47;;;32.89;34.29
21361;BME280;10839;43.206;23.550;2023-07-09T11:10:18;97522.03;;;33.14;34.47
21361;BME280;10839;43.206;23.550;2023-07-09T11:13:12;97514.47;;;33.06;34.24
21361;BME280;10839;43.206;23.550;2023-07-09T11:15:41;97522.50;;;33.16;34.37
21361;BME280;10839;43.206;23.550;2023-07-09T11:18:12;97513.84;;;33.00;34.21
21361;BME280;10839;43.206;23.550;2023-07-09T11:20:45;97515.78;;;32.40;35.38
21361;BME280;10839;43.206;23.550;2023-07-09T11:23:18;97512.19;;;32.82;35.20
21361;BME280;10839;43.206;23.550;2023-07-09T11:25:48;97517.19;;;32.37;35.04
21361;BME280;10839;43.206;23.550;2023-07-09T11:28:14;97508.56;;;32.65;35.24
21361;BME280;10839;43.206;23.550;2023-07-09T11:30:49;97507.75;;;32.38;35.99
21361;BME280;10839;43.206;23.550;2023-07-09T11:33:20;97518.75;;;32.61;35.35
21361;BME280;10839;43.206;23.550;2023-07-09T11:36:09;97516.78;;;32.70;35.29
21361;BME280;10839;43.206;23.550;2023-07-09T11:38:45;97511.03;;;32.40;34.89
21361;BME280;10839;43.206;23.550;2023-07-09T11:41:25;97512.00;;;32.44;35.10
21361;BME280;10839;43.206;23.550;2023-07-09T11:44:00;97504.09;;;32.12;34.74
21361;BME280;10839;43.206;23.550;2023-07-09T11:46:27;97509.66;;;32.29;34.80
21361;BME280;10839;43.206;23.550;2023-07-09T11:48:55;97502.69;;;32.40;34.10
21361;BME280;10839;43.206;23.550;2023-07-09T11:51:34;97499.47;;;32.16;34.98
21361;BME280;10839;43.206;23.550;2023-07-09T11:54:04;97495.53;;;32.00;34.91
21361;BME280;10839;43.206;23.550;2023-07-09T11:56:30;97500.09;;;31.96;35.05
21361;BME280;10839;43.206;23.550;2023-07-09T11:58:57;97494.75;;;32.17;34.66
21361;BME280;10839;43.206;23.550;2023-07-09T12:01:33;97494.91;;;32.20;34.71
21361;BME280;10839;43.206;23.550;2023-07-09T12:04:01;97498.94;;;31.89;34.70
21361;BME280;10839;43.206;23.550;2023-07-09T12:06:29;97495.09;;;31.76;34.49
21361;BME280;10839;43.206;23.550;2023-07-09T12:08:58;97493.03;;;31.90;34.91
21361;BME280;10839;43.206;23.550;2023-07-09T12:11:32;97489.31;;;32.03;34.47
21361;BME280;10839;43.206;23.550;2023-07-09T12:14:10;97492.75;;;32.09;35.70
21361;BME280;10839;43.206;23.550;2023-07-09T12:16:42;97489.25;;;31.86;34.63
21361;BME280;10839;43.206;23.550;2023-07-09T12:19:12;97493.38;;;31.89;33.88
21361;BME280;10839;43.206;23.550;2023-07-09T12:21:39;97488.44;;;31.86;34.16
21361;BME280;10839;43.206;23.550;2023-07-09T12:24:22;97490.09;;;31.95;34.42
21361;BME280;10839;43.206;23.550;2023-07-09T12:26:54;97492.44;;;32.10;34.41
21361;BME280;10839;43.206;23.550;2023-07-09T12:29:31;97489.97;;;32.00;34.28
21361;BME280;10839;43.206;23.550;2023-07-09T12:31:58;97481.91;;;31.90;34.08
21361;BME280;10839;43.206;23.550;2023-07-09T12:34:24;97482.03;;;31.85;34.46
21361;BME280;10839;43.206;23.550;2023-07-09T12:36:53;97487.06;;;31.75;34.26
21361;BME280;10839;43.206;23.550;2023-07-09T12:39:26;97478.63;;;31.97;34.33
21361;BME280;10839;43.206;23.550;2023-07-09T12:41:55;97476.75;;;31.75;34.81
21361;BME280;10839;43.206;23.550;2023-07-09T12:44:23;97474.47;;;31.77;33.92
21361;BME280;10839;43.206;23.550;2023-07-09T12:46:52;97477.41;;;31.72;34.86
21361;BME280;10839;43.206;23.550;2023-07-09T12:49:26;97473.09;;;31.66;33.85
21361;BME280;10839;43.206;23.550;2023-07-09T12:52:01;97468.63;;;31.48;33.90
21361;BME280;10839;43.206;23.550;2023-07-09T12:54:29;97471.59;;;31.52;34.32
21361;BME280;10839;43.206;23.550;2023-07-09T12:56:58;97461.00;;;31.62;34.04
21361;BME280;10839;43.206;23.550;2023-07-09T12:59:27;97465.38;;;31.55;34.10
21361;BME280;10839;43.206;23.550;2023-07-09T13:02:16;97464.66;;;31.10;34.70
21361;BME280;10839;43.206;23.550;2023-07-09T13:04:43;97456.44;;;31.05;34.35
21361;BME280;10839;43.206;23.550;2023-07-09T13:09:53;97449.81;;;31.23;33.63
21361;BME280;10839;43.206;23.550;2023-07-09T13:12:31;97453.25;;;31.20;33.93
21361;BME280;10839;43.206;23.550;2023-07-09T13:14:58;97452.59;;;31.23;34.48
21361;BME280;10839;43.206;23.550;2023-07-09T13:17:29;97449.44;;;31.16;34.56
21361;BME280;10839;43.206;23.550;2023-07-09T13:19:56;97453.03;;;31.39;33.96
21361;BME280;10839;43.206;23.550;2023-07-09T13:22:23;97451.69;;;31.75;33.37
21361;BME280;10839;43.206;23.550;2023-07-09T13:24:50;97452.13;;;31.29;33.11
21361;BME280;10839;43.206;23.550;2023-07-09T13:27:16;97447.97;;;31.10;32.86
21361;BME280;10839;43.206;23.550;2023-07-09T13:29:42;97453.78;;;31.00;32.70
21361;BME280;10839;43.206;23.550;2023-07-09T13:32:10;97449.81;;;31.23;33.07
21361;BME280;10839;43.206;23.550;2023-07-09T13:34:36;97459.97;;;31.58;32.86
21361;BME280;10839;43.206;23.550;2023-07-09T13:37:04;97449.25;;;31.82;33.05